Montebello, California
Current Conditions -  °F | °C
As of 11:47 PM on Friday 19 Dec 2014 (Local Time) from KCQT Reporting Station
Clear Clear  
Wind Chill: 53°   Ceiling: Unl
Heat Index: 53°   Visibility: 10mi
Dew Point: 47°   Wind: 0mph
Humidity: 80%   Direction: NA
Pressure: 30.18"   Gusts: NA
Location:  34.02°N, 118.11°W
Report Text: KCQT 200747Z AUTO 00000KT 10SM CLR 12/08 A3018 RMK AO2 SLP218 T01170083 401890094
Loading
Personal Weather Stations






























Interactive Weather Map New forecast layout! Learn more

10-Day Weather Forecast

Advertisements
Track Severe Weather on mobile